Flight Track Log - Related Links

Times and Time Zones

All times are in EDT time to prevent confusion due to time zone crossing. See the N66SG flight status page for this flight to view local times or setup timezone preferences in your user account.

Time Position Orientation Groundspeed Altitude Reporting Facility
EDT Latitude Longitude Course Direction KTS MPH feet Rate Location/Type
Wed 12:38:03 AM 34.1775 -118.3536 220° Southwest 167 192 2,100  Level Los Angeles Center
Wed 12:39:04 AM 34.1389 -118.3928 220° Southwest 182 209 4,700 2,016 Climbing Los Angeles Center
Wed 12:40:05 AM 34.1381 -118.4433 269° West 195 224 6,200 2,098 Climbing Los Angeles Center
Wed 12:41:07 AM 34.2156 -118.4375 North 262 302 9,000 2,439 Climbing Los Angeles Center
Wed 12:42:08 AM 34.2953 -118.4056 18° North 297 342 11,200 2,098 Climbing Los Angeles Center
Wed 12:43:10 AM 34.3783 -118.3700 19° North 313 360 13,300 1,822 Climbing Los Angeles Center
Wed 12:44:23 AM 34.4647 -118.3303 21° North 331 381 15,300 1,956 Climbing Los Angeles Center
Wed 12:45:25 AM 34.5394 -118.2164 51° Northeast 356 410 17,700 2,244 Climbing Los Angeles Center
Wed 12:46:26 AM 34.6061 -118.1064 54° Northeast 368 423 19,900 2,066 Climbing Los Angeles Center
Wed 12:47:27 AM 34.6411 -117.9897 70° East 379 436 21,900 1,761 Climbing Los Angeles Center
Wed 12:49:30 AM 34.6692 -117.7361 82° East 383 441 25,300 1,589 Climbing Los Angeles Center
Wed 12:50:32 AM 34.7044 -117.6056 72° East 408 470 26,800 1,561 Climbing Los Angeles Center
Wed 12:51:33 AM 34.7450 -117.4444 73° East 419 482 28,500 1,574 Climbing Los Angeles Center
Wed 12:52:34 AM 34.7803 -117.3061 73° East 431 496 30,000 1,220 Climbing Los Angeles Center
Wed 12:53:36 AM 34.8150 -117.1642 73° East 442 509 31,000 1,171 Climbing Los Angeles Center
Wed 12:54:37 AM 34.8519 -117.0189 73° East 451 519 32,400 1,415 Climbing Los Angeles Center
Wed 12:55:39 AM 34.8994 -116.8797 67° East 449 517 33,900 1,463 Climbing Los Angeles Center
Wed 12:56:40 AM 34.9803 -116.7650 49° Northeast 448 516 35,400 1,623 Climbing Los Angeles Center
Wed 12:57:41 AM 35.0786 -116.6247 49° Northeast 454 522 37,200 1,279 Climbing Los Angeles Center
Wed 12:58:42 AM 35.1586 -116.5072 50° Northeast 453 521 38,000 927 Climbing Los Angeles Center
Wed 12:59:44 AM 35.2422 -116.3903 49° Northeast 456 525 39,100 1,024 Climbing Los Angeles Center
Wed 01:00:45 AM 35.3244 -116.2714 50° Northeast 458 527 40,100 787 Climbing Los Angeles Center
Wed 01:01:46 AM 35.4044 -116.1522 51° Northeast 455 524 40,700 585 Climbing Los Angeles Center
Wed 01:02:48 AM 35.4906 -116.0306 49° Northeast 469 540 41,300 683 Climbing Los Angeles Center
Wed 01:03:49 AM 35.5719 -115.9089 51° Northeast 465 535 42,100 639 Climbing Los Angeles Center
Wed 01:04:50 AM 35.6683 -115.7658 50° Northeast 468 539 42,600 439 Climbing Los Angeles Center
Wed 01:05:52 AM 35.7522 -115.6433 50° Northeast 470 541 43,000 195 Climbing Los Angeles Center
Wed 01:06:53 AM 35.8392 -115.5172 50° Northeast 480 552 43,000  Level Los Angeles Center
Wed 01:07:54 AM 35.9267 -115.3875 50° Northeast 491 565 43,000  Level Los Angeles Center
Wed 01:08:56 AM 36.0136 -115.2583 50° Northeast 493 567 43,000  Level Los Angeles Center
Wed 01:09:57 AM 36.0936 -115.1214 54° Northeast 497 572 43,000  Level Los Angeles Center
Wed 01:10:58 AM 36.1642 -114.9333 65° Northeast 504 580 43,000  Level Los Angeles Center
Wed 01:11:59 AM 36.2247 -114.7739 65° Northeast 512 589 43,000  Level Los Angeles Center
Wed 01:13:01 AM 36.2842 -114.6156 65° Northeast 510 587 43,000  Level Los Angeles Center
Wed 01:14:02 AM 36.3431 -114.4572 65° Northeast 507 583 43,000  Level Los Angeles Center
Wed 01:15:03 AM 36.4017 -114.2997 65° Northeast 505 581 43,000  Level Los Angeles Center
Wed 01:16:04 AM 36.4478 -114.1733 66° East 504 580 43,000  Level Los Angeles Center
Wed 01:17:06 AM 36.5233 -113.9681 65° Northeast 503 579 43,000  Level Los Angeles Center
Wed 01:18:07 AM 36.5806 -113.8097 66° East 504 580 43,000  Level Los Angeles Center
Wed 01:19:09 AM 36.6375 -113.6525 66° East 501 577 43,000  Level Los Angeles Center
Wed 01:20:22 AM 36.6950 -113.4950 65° Northeast 502 578 43,000  Level Los Angeles Center
Wed 01:21:23 AM 36.7636 -113.3067 65° Northeast 500 575 43,000  Level Los Angeles Center
Wed 01:22:25 AM 36.8192 -113.1478 66° East 502 578 43,000  Level Los Angeles Center
Wed 01:23:26 AM 36.8767 -112.9897 66° East 503 579 43,000  Level Los Angeles Center
Wed 01:24:39 AM 36.9439 -112.7986 66° East 504 580 43,000  Level Los Angeles Center
Wed 01:25:41 AM 37.0108 -112.6086 66° East 502 578 43,000  Level Los Angeles Center
Wed 01:26:42 AM 37.0667 -112.4503 66° East 502 578 43,000  Level Los Angeles Center
Wed 01:27:44 AM 37.1214 -112.2914 67° East 501 577 43,000  Level Los Angeles Center
Wed 01:28:45 AM 37.1772 -112.1322 66° East 502 578 43,000  Level Los Angeles Center
Wed 01:29:58 AM 37.2319 -111.9722 67° East 503 579 43,000  Level Los Angeles Center
Wed 01:31:00 AM 37.2986 -111.7786 67° East 506 582 43,000  Level Los Angeles Center
Wed 01:32:01 AM 37.3653 -111.5831 67° East 509 586 43,000  Level Los Angeles Center
Wed 01:33:02 AM 37.4206 -111.4206 67° East 509 586 43,000  Level Los Angeles Center
Wed 01:34:04 AM 37.4753 -111.2578 67° East 508 585 43,000  Level Los Angeles Center
Wed 01:35:16 AM 37.5403 -111.0628 67° East 506 582 43,000  Level Denver Center
Wed 01:36:17 AM 37.5936 -110.9003 67° East 504 580 43,000  Level Denver Center
Wed 01:37:18 AM 37.6475 -110.7381 67° East 504 580 43,000  Level Denver Center
Wed 01:38:18 AM 37.6997 -110.5753 68° East 502 578 43,000  Level Denver Center
Wed 01:39:18 AM 37.7581 -110.3972 67° East 503 579 43,000  Level Denver Center
Wed 01:40:19 AM 37.8092 -110.2397 68° East 506 582 43,000  Level Denver Center
Wed 01:41:20 AM 37.8597 -110.0831 68° East 504 580 43,000  Level Denver Center
Wed 01:42:20 AM 37.9172 -109.9014 68° East 498 573 43,000  Level Denver Center
Wed 01:43:21 AM 37.9681 -109.7436 68° East 502 578 43,000  Level Denver Center
Wed 01:44:21 AM 38.0178 -109.5861 68° East 502 578 43,000  Level Denver Center
Wed 01:45:22 AM 38.0667 -109.4275 69° East 501 577 43,000  Level Denver Center
Wed 01:46:23 AM 38.1247 -109.2447 68° East 501 577 43,000  Level Denver Center
Wed 01:47:23 AM 38.1733 -109.0844 69° East 506 582 43,000  Level Denver Center
Wed 01:48:24 AM 38.2217 -108.9275 69° East 502 578 43,000  Level Denver Center
Wed 01:49:24 AM 38.2783 -108.7450 68° East 500 575 43,000  Level Denver Center
Wed 01:50:25 AM 38.3267 -108.5869 69° East 500 575 43,000  Level Denver Center
Wed 01:51:25 AM 38.3747 -108.4317 68° East 497 572 43,000  Level Denver Center
Wed 01:52:26 AM 38.4300 -108.2486 69° East 498 573 43,000  Level Denver Center
Wed 01:53:26 AM 38.4769 -108.0892 69° East 502 578 43,000  Level Denver Center
Wed 01:54:39 AM 38.5253 -107.9311 69° East 500 575 43,000  Level Denver Center
Wed 01:55:39 AM 38.5861 -107.7239 69° East 491 565 43,000 100 Level Denver Center
Wed 01:56:39 AM 38.6325 -107.5686 69° East 491 565 43,200 347 Climbing Denver Center
Wed 01:57:40 AM 38.6839 -107.3917 70° East 479 551 43,700 496 Climbing Denver Center
Wed 01:58:40 AM 38.7281 -107.2392 70° East 478 550 44,200 446 Climbing Denver Center
Wed 01:59:41 AM 38.7747 -107.0792 69° East 477 549 44,600 397 Climbing Denver Center
Wed 02:00:41 AM 38.8189 -106.9239 70° East 468 539 45,000 198 Climbing Denver Center
Wed 02:01:42 AM 38.8642 -106.7664 70° East 473 544 45,000  Level Denver Center
Wed 02:02:42 AM 38.9089 -106.6089 70° East 473 544 45,000  Level Denver Center
Wed 02:03:43 AM 38.9594 -106.4292 70° East 477 549 45,000  Level Denver Center
Wed 02:04:43 AM 39.0019 -106.2744 70° East 481 554 45,000  Level Denver Center
Wed 02:05:44 AM 39.0425 -106.1303 70° East 481 554 45,000  Level Denver Center
Wed 02:06:44 AM 39.0872 -105.9683 70° East 482 555 45,000  Level Denver Center
Wed 02:07:44 AM 39.1325 -105.8058 70° East 482 555 45,000  Level Denver Center
Wed 02:08:45 AM 39.1767 -105.6439 71° East 481 554 45,000  Level Denver Center
Wed 02:09:45 AM 39.2206 -105.4811 71° East 482 555 45,000  Level Denver Center
Wed 02:10:46 AM 39.2750 -105.2847 70° East 480 552 45,000  Level Denver Center
Wed 02:11:46 AM 39.3192 -105.1211 71° East 485 558 45,000  Level Denver Center
Wed 02:12:47 AM 39.3617 -104.9572 71° East 486 559 45,000  Level Denver Center
Wed 02:13:47 AM 39.4047 -104.7936 71° East 490 564 45,000  Level Denver Center
Wed 02:14:47 AM 39.4464 -104.6314 72° East 487 560 45,000  Level Denver Center
Wed 02:15:48 AM 39.4900 -104.4672 71° East 495 570 45,000  Level Denver Center
Wed 02:16:48 AM 39.5333 -104.3011 71° East 492 566 45,000  Level Denver Center
Wed 02:17:49 AM 39.5761 -104.1342 72° East 493 567 45,000  Level Denver Center
Wed 02:18:49 AM 39.6186 -103.9667 72° East 491 565 45,000  Level Denver Center
Wed 02:19:49 AM 39.6619 -103.7953 72° East 499 574 45,000  Level Denver Center
Wed 02:20:50 AM 39.7053 -103.6294 71° East 485 558 45,000  Level Denver Center
Wed 02:21:50 AM 39.7475 -103.4581 72° East 498 573 45,000  Level Denver Center
Wed 02:22:51 AM 39.7908 -103.2853 72° East 503 579 45,000  Level Denver Center
Wed 02:23:51 AM 39.8336 -103.1122 72° East 503 579 45,000  Level Denver Center
Wed 02:24:51 AM 39.8758 -102.9389 72° East 505 581 45,000  Level Denver Center
Wed 02:25:52 AM 39.9189 -102.7650 72° East 506 582 45,000  Level Denver Center
Wed 02:26:52 AM 39.9633 -102.5828 72° East 505 581 45,000  Level Denver Center
Wed 02:27:53 AM 40.0094 -102.3878 73° East 505 581 45,000  Level Denver Center
Wed 02:28:53 AM 40.0486 -102.2214 73° East 504 580 45,000  Level Denver Center
Wed 02:29:54 AM 40.0875 -102.0564 73° East 499 574 45,000  Level Denver Center
Wed 02:30:54 AM 40.1336 -101.8644 73° East 496 571 45,000  Level Denver Center
Wed 02:31:54 AM 40.1711 -101.6994 73° East 496 571 45,000  Level Denver Center
Wed 02:32:55 AM 40.2100 -101.5342 73° East 497 572 45,000  Level Denver Center
Wed 02:33:55 AM 40.2528 -101.3431 74° East 493 567 45,000  Level Denver Center
Wed 02:34:55 AM 40.2897 -101.1786 74° East 493 567 45,000  Level Denver Center
Wed 02:35:56 AM 40.3272 -101.0175 73° East 487 560 45,000  Level Denver Center
Wed 02:36:56 AM 40.3681 -100.8294 74° East 484 557 45,000  Level Denver Center
Wed 02:37:57 AM 40.4036 -100.6703 74° East 479 551 45,000  Level Denver Center
Wed 02:38:57 AM 40.4386 -100.5133 74° East 474 545 45,000  Level Denver Center
Wed 02:39:57 AM 40.4786 -100.3311 74° East 471 542 45,000  Level Denver Center
Wed 02:40:58 AM 40.5122 -100.1747 74° East 468 539 45,000  Level Denver Center
Wed 02:42:10 AM 40.5575 -99.9644 74° East 470 541 45,000  Level Denver Center
Wed 02:43:11 AM 40.5892 -99.8200 74° East 470 541 45,000  Level Denver Center
Wed 02:44:11 AM 40.6239 -99.6539 75° East 471 542 45,000  Level Denver Center
Wed 02:45:11 AM 40.6586 -99.4881 75° East 471 542 45,000  Level Denver Center
Wed 02:46:12 AM 40.6936 -99.3208 75° East 474 545 45,000  Level Denver Center
Wed 02:47:15 AM 40.7353 -99.1219 74° East 475 547 45,000  Level Minneapolis Center
Wed 02:48:15 AM 40.7628 -98.9808 76° East 476 548 45,000  Level Minneapolis Center
Wed 02:49:16 AM 40.7972 -98.8111 75° East 478 550 45,000  Level Minneapolis Center
Wed 02:50:16 AM 40.8317 -98.6403 75° East 481 554 45,000  Level Minneapolis Center
Wed 02:51:16 AM 40.8661 -98.4683 75° East 484 557 45,000  Level Minneapolis Center
Wed 02:52:16 AM 40.9042 -98.2750 75° East 485 558 45,000  Level Minneapolis Center
Wed 02:53:17 AM 40.9389 -98.1036 75° East 486 559 45,000  Level Minneapolis Center
Wed 02:54:17 AM 40.9719 -97.9333 76° East 483 556 45,000  Level Minneapolis Center
Wed 02:55:17 AM 41.0050 -97.7592 76° East 486 559 45,000  Level Minneapolis Center
Wed 02:56:17 AM 41.0389 -97.5864 75° East 487 560 45,000  Level Minneapolis Center
Wed 02:57:18 AM 41.0711 -97.4147 76° East 483 556 45,000  Level Minneapolis Center
Wed 02:58:18 AM 41.1067 -97.2281 76° East 481 554 45,000  Level Minneapolis Center
Wed 02:59:18 AM 41.1383 -97.0567 76° East 479 551 45,000  Level Minneapolis Center
Wed 03:00:19 AM 41.1697 -96.8872 76° East 476 548 45,000  Level Minneapolis Center
Wed 03:01:19 AM 41.2017 -96.7172 76° East 475 547 45,000  Level Minneapolis Center
Wed 03:02:19 AM 41.2325 -96.5481 76° East 472 543 45,000  Level Minneapolis Center
Wed 03:03:19 AM 41.2633 -96.3800 76° East 471 542 45,000  Level Minneapolis Center
Wed 03:04:20 AM 41.2894 -96.2239 77° East 473 544 45,000  Level Minneapolis Center
Wed 03:05:20 AM 41.3200 -96.0550 76° East 471 542 45,000  Level Minneapolis Center
Wed 03:06:20 AM 41.3506 -95.8856 76° East 471 542 45,000  Level Minneapolis Center
Wed 03:07:21 AM 41.3789 -95.7144 78° East 473 544 45,000  Level Minneapolis Center
Wed 03:08:21 AM 41.4078 -95.5444 77° East 474 545 45,000  Level Minneapolis Center
Wed 03:09:21 AM 41.4367 -95.3722 77° East 475 547 45,000  Level Minneapolis Center
Wed 03:10:22 AM 41.4661 -95.2022 77° East 477 549 45,000  Level Minneapolis Center
Wed 03:11:22 AM 41.4953 -95.0300 77° East 477 549 45,000  Level Minneapolis Center
Wed 03:12:22 AM 41.5228 -94.8592 78° East 473 544 45,000  Level Minneapolis Center
Wed 03:13:22 AM 41.5514 -94.6864 77° East 476 548 45,000  Level Minneapolis Center
Wed 03:14:23 AM 41.5794 -94.5139 78° East 475 547 45,000  Level Minneapolis Center
Wed 03:15:23 AM 41.6067 -94.3408 78° East 477 549 45,000  Level Minneapolis Center
Wed 03:16:23 AM 41.6372 -94.1469 78° East 476 548 45,000  Level Minneapolis Center
Wed 03:17:24 AM 41.6647 -93.9742 78° East 477 549 45,000  Level Minneapolis Center
Wed 03:18:24 AM 41.6919 -93.8003 78° East 479 551 45,000  Level Minneapolis Center
Wed 03:19:24 AM 41.7186 -93.6267 78° East 479 551 45,000  Level Minneapolis Center
Wed 03:20:24 AM 41.7464 -93.4519 78° East 482 555 45,000  Level Minneapolis Center
Wed 03:21:25 AM 41.7714 -93.2772 79° East 482 555 45,000  Level Minneapolis Center
Wed 03:22:25 AM 41.7942 -93.1053 80° East 477 549 45,000  Level Minneapolis Center
Wed 03:23:25 AM 41.8172 -92.9319 80° East 475 547 45,000  Level Minneapolis Center
Wed 03:24:26 AM 41.8419 -92.7492 80° East 475 547 45,000  Level Minneapolis Center
Wed 03:25:18 AM 41.8600 -92.6108 80° East 473 544 45,000  Level Chicago Center
Wed 03:26:19 AM 41.8817 -92.4383 80° East 475 547 45,000  Level Chicago Center
Wed 03:27:19 AM 41.9031 -92.2656 81° East 475 547 45,000  Level Chicago Center
Wed 03:28:19 AM 41.9247 -92.0936 80° East 473 544 45,000  Level Chicago Center
Wed 03:29:19 AM 41.9469 -91.9217 80° East 472 543 45,000  Level Chicago Center
Wed 03:30:19 AM 41.9719 -91.7156 81° East 472 543 45,000  Level Chicago Center
Wed 03:31:20 AM 41.9919 -91.5428 81° East 474 545 45,000  Level Chicago Center
Wed 03:32:20 AM 42.0128 -91.3694 81° East 477 549 45,000  Level Chicago Center
Wed 03:33:20 AM 42.0336 -91.1975 81° East 477 549 45,000  Level Chicago Center
Wed 03:34:20 AM 42.0525 -91.0261 82° East 472 543 45,000  Level Chicago Center
Wed 03:35:20 AM 42.0714 -90.8539 82° East 472 543 45,000  Level Chicago Center
Wed 03:36:20 AM 42.0917 -90.6789 81° East 477 549 45,000  Level Chicago Center
Wed 03:37:21 AM 42.1108 -90.5047 82° East 478 550 45,000  Level Chicago Center
Wed 03:38:21 AM 42.1297 -90.3289 82° East 479 551 45,000  Level Chicago Center
Wed 03:39:21 AM 42.1483 -90.1544 82° East 478 550 45,000  Level Chicago Center
Wed 03:40:21 AM 42.1678 -89.9794 81° East 478 550 45,000  Level Chicago Center
Wed 03:41:21 AM 42.1864 -89.7919 82° East 477 549 45,000  Level Chicago Center
Wed 03:42:21 AM 42.2044 -89.6147 82° East 478 550 45,000  Level Chicago Center
Wed 03:43:22 AM 42.2217 -89.4397 82° East 473 544 45,000  Level Chicago Center
Wed 03:44:22 AM 42.2397 -89.2650 82° East 472 543 45,000  Level Chicago Center
Wed 03:45:22 AM 42.2572 -89.0911 82° East 470 541 45,000  Level Chicago Center
Wed 03:46:22 AM 42.2739 -88.9142 83° East 473 544 45,000  Level Chicago Center
Wed 03:47:23 AM 42.2917 -88.7339 82° East 471 542 45,000  Level Chicago Center
Wed 03:48:23 AM 42.3078 -88.5583 83° East 471 542 45,000  Level Chicago Center
Wed 03:49:23 AM 42.3236 -88.3833 83° East 469 540 45,000  Level Chicago Center
Wed 03:50:23 AM 42.3392 -88.2125 83° East 473 544 45,000  Level Chicago Center
Wed 03:51:23 AM 42.3550 -88.0356 83° East 476 548 45,000  Level Chicago Center
Wed 03:52:24 AM 42.3706 -87.8586 83° East 475 547 45,000  Level Chicago Center
Wed 03:53:24 AM 42.3858 -87.6761 83° East 475 547 45,000  Level Chicago Center
Wed 03:54:24 AM 42.4006 -87.4994 84° East 475 547 45,000  Level Chicago Center
Wed 03:55:24 AM 42.4142 -87.3253 84° East 470 541 45,000 -150 Level Chicago Center
Wed 03:56:24 AM 42.4294 -87.1486 83° East 472 543 44,700 -843 Descending Chicago Center
Wed 03:57:25 AM 42.4583 -86.9733 77° East 478 550 43,300 -1,983 Descending Chicago Center
Wed 03:58:25 AM 42.4908 -86.7978 76° East 483 556 40,700 -2,450 Descending Chicago Center
Wed 03:59:25 AM 42.5217 -86.6125 77° East 486 559 38,400 -2,150 Descending Chicago Center
Wed 04:00:25 AM 42.5514 -86.4381 77° East 480 552 36,400 -1,190 Descending Chicago Center
Wed 04:01:26 AM 42.5800 -86.2647 77° East 477 549 36,000 -496 Descending Chicago Center
Wed 04:02:26 AM 42.6061 -86.0931 78° East 471 542 35,400 -800 Descending Chicago Center
Wed 04:03:26 AM 42.6289 -85.9147 80° East 484 557 34,400 -1,250 Descending Chicago Center
Wed 04:04:26 AM 42.6292 -85.7344 90° East 484 557 32,900 -1,934 Descending Chicago Center
Wed 04:05:27 AM 42.6344 -85.5581 88° East 476 548 30,500 -2,380 Descending Chicago Center
Wed 04:06:27 AM 42.6383 -85.3833 88° East 468 539 28,100 -2,450 Descending Chicago Center
Wed 04:07:27 AM 42.6414 -85.2072 89° East 469 540 25,600 -2,400 Descending Chicago Center
Wed 04:08:27 AM 42.6453 -85.0372 88° East 458 527 23,300 -2,231 Descending Chicago Center
Wed 04:09:28 AM 42.6472 -84.8719 89° East 442 509 21,100 -2,182 Descending Chicago Center
Wed 04:10:28 AM 42.6503 -84.7108 88° East 432 497 18,900 -2,150 Descending Chicago Center
Wed 04:11:28 AM 42.6525 -84.5569 89° East 413 475 16,800 -2,100 Descending Chicago Center
Wed 04:12:28 AM 42.6547 -84.4072 89° East 402 463 14,700 -2,067 Descending Chicago Center
Wed 04:12:58 AM 42.6536 -84.3242 91° East 399 459 13,700 -1,933 Descending Cleveland Center
Wed 04:13:58 AM 42.6561 -84.1858 89° East 379 436 11,800 -1,400 Descending Cleveland Center
Wed 04:14:58 AM 42.6536 -84.0614 92° East 300 345 10,900 -900 Descending Cleveland Center
Wed 04:15:58 AM 42.6500 -83.9708 93° East 299 344 10,000 -1,650 Descending Cleveland Center
Wed 04:16:58 AM 42.6472 -83.8522 92° East 285 328 7,600 -2,100 Descending Cleveland Center
Wed 04:17:58 AM 42.6522 -83.7508 86° East 280 322 5,800 1,700 Descending Cleveland Center
Wed 04:18:58 AM 42.6469 -83.6319 93° East 280 322 11,000 2,600 Climbing Cleveland Center
Wed 04:19:58 AM 42.6456 -83.5244 91° East 280 322 11,000  Level Cleveland Center
Wed 04:20:58 AM 42.6419 -83.4200 93° East 280 322 11,000  Level Cleveland Center
Wed 04:22:00 AM 42.6500 -83.4167 90° East  Level FlightAware Approximate
Wed 04:29:00 AM 42.6656 -83.4205 90° East  Level Estimated
Wed 04:30:00 AM 42.6656 -83.4205 90° East  Level Estimated
Wed 04:31:00 AM 42.6656 -83.4205 90° East  Level Estimated

Login

Don't have an account? Register now (free) for customized features, flight alerts, and more!